EGTE/EXT METAR and TAF weather

Enter ICAO airport designator
Station Type Date Time Source
EGTE METAR 2021/07/27 16:50 UTC NOAA

EGTE 271650Z 28013KT 9999 VCSH FEW010 SCT025CB 19/16 Q1007


Station Type Date Time Source
EGTE Decoded METAR 2021/07/27 16:50 UTC NOAA

Exeter Airport, United Kingdom (EGTE) 50-44N 003-25W
Jul 27, 2021 - 12:50 PM EDT / 2021.07.27 1650 UTC
Wind: from the W (280 degrees) at 15 MPH (13 KT):0
Visibility: greater than 7 mile(s):0
Sky conditions: partly cloudy
Weather: showers in the vicinity; Cumulonimbus clouds observed
Temperature: 66 F (19 C)
Dew Point: 60 F (16 C)
Relative Humidity: 82%
Pressure (altimeter): 29.74 in. Hg (1007 hPa)
ob: EGTE 271650Z 28013KT 9999 VCSH FEW010 SCT025CB 19/16 Q1007
cycle: 17

Station Type Date Time Source
EGTE TAF 2012/04/19 12:15 UTC NOAA

TAF TAF EGTE 191401Z 1912/1924 31016KT 9999 SCT030 SCT035 PROB40
TEMPO 1915/1918 7000 SHRA BKN014

Example: see airport list